createdAt,value
2022-11-13T00:00:33.545Z,29.93
2022-11-13T00:03:20.905Z,27.77
2022-11-13T00:06:07.986Z,26.43
2022-11-13T00:08:55.722Z,26.83
2022-11-13T00:11:42.620Z,26.50
2022-11-13T00:14:31.034Z,27.50
2022-11-13T00:17:17.738Z,25.57
2022-11-13T00:20:05.651Z,28.03
2022-11-13T00:22:52.347Z,24.47
2022-11-13T00:25:39.497Z,25.90
2022-11-13T00:28:26.673Z,25.13
2022-11-13T00:31:16.513Z,25.23
2022-11-13T00:37:10.826Z,25.63
2022-11-13T00:39:59.783Z,26.20
2022-11-13T00:42:46.826Z,26.30
2022-11-13T00:45:33.854Z,26.43
2022-11-13T00:48:22.317Z,25.00
2022-11-13T00:51:09.340Z,27.30
2022-11-13T00:53:56.184Z,26.10
2022-11-13T00:56:43.647Z,26.47
2022-11-13T00:59:30.559Z,32.80
2022-11-13T01:02:20.499Z,30.97
2022-11-13T01:05:10.141Z,27.53
2022-11-13T01:07:57.410Z,23.97
2022-11-13T01:10:50.396Z,23.53
2022-11-13T01:13:40.961Z,23.57
2022-11-13T01:16:29.157Z,24.40
2022-11-13T01:19:16.686Z,24.03
2022-11-13T01:22:05.003Z,25.73
2022-11-13T01:24:52.118Z,25.53
2022-11-13T01:27:39.488Z,24.37
2022-11-13T01:30:26.177Z,23.73
2022-11-13T01:33:13.167Z,24.43
2022-11-13T01:36:04.324Z,23.63
2022-11-13T01:38:53.672Z,25.33
2022-11-13T01:41:41.220Z,26.43
2022-11-13T01:44:46.012Z,25.33
2022-11-13T01:47:32.920Z,24.57
2022-11-13T01:50:19.852Z,25.13
2022-11-13T01:53:07.647Z,24.73
2022-11-13T01:55:56.016Z,25.37
2022-11-13T01:58:45.122Z,23.57
2022-11-13T02:01:32.073Z,23.10
2022-11-13T02:04:19.598Z,21.93
2022-11-13T02:07:09.192Z,20.37
2022-11-13T02:09:58.194Z,23.07
2022-11-13T02:12:50.723Z,19.83
2022-11-13T02:15:37.759Z,24.27
2022-11-13T02:18:26.624Z,21.47
2022-11-13T02:21:30.243Z,28.50
2022-11-13T02:24:24.099Z,23.57
2022-11-13T02:27:15.899Z,23.17
2022-11-13T02:30:16.039Z,24.53
2022-11-13T02:33:03.263Z,23.53
2022-11-13T02:35:50.298Z,23.90
2022-11-13T02:38:42.038Z,23.73
2022-11-13T02:41:30.553Z,22.83
2022-11-13T02:44:17.689Z,24.00
2022-11-13T02:47:04.879Z,23.13
2022-11-13T02:49:51.865Z,25.30
2022-11-13T02:52:39.006Z,23.17
2022-11-13T02:55:26.095Z,24.13
2022-11-13T02:58:14.097Z,23.13
2022-11-13T03:01:03.574Z,23.17
2022-11-13T03:03:58.471Z,22.93
2022-11-13T03:06:45.310Z,21.30
2022-11-13T03:09:32.303Z,22.73
2022-11-13T03:12:19.000Z,22.60
2022-11-13T03:15:14.195Z,23.63
2022-11-13T03:18:04.421Z,25.23
2022-11-13T03:20:53.956Z,24.73
2022-11-13T03:23:42.053Z,26.47
2022-11-13T03:26:29.222Z,25.00
2022-11-13T03:29:16.084Z,26.03
2022-11-13T03:32:05.383Z,29.20
2022-11-13T03:34:52.158Z,26.17
2022-11-13T03:37:39.114Z,26.27
2022-11-13T03:40:26.112Z,24.63
2022-11-13T03:43:13.121Z,24.50
2022-11-13T03:46:00.059Z,23.80
2022-11-13T03:48:48.580Z,23.97
2022-11-13T03:51:35.950Z,23.53
2022-11-13T03:54:23.007Z,25.93
2022-11-13T03:57:10.023Z,24.57
2022-11-13T03:59:57.127Z,26.60
2022-11-13T04:02:44.248Z,24.00
2022-11-13T04:05:33.013Z,25.30
2022-11-13T04:08:20.213Z,22.93
2022-11-13T04:11:08.011Z,22.27
2022-11-13T04:13:54.794Z,21.80
2022-11-13T04:16:41.877Z,20.13
2022-11-13T04:19:28.883Z,19.50
2022-11-13T04:22:17.259Z,19.80
2022-11-13T04:25:04.199Z,19.40
2022-11-13T04:27:51.440Z,19.30
2022-11-13T04:30:38.511Z,18.47
2022-11-13T04:33:25.238Z,18.13
2022-11-13T04:36:12.241Z,20.43
2022-11-13T04:39:00.568Z,19.27
2022-11-13T04:42:05.040Z,17.73
2022-11-13T04:44:52.237Z,17.30
2022-11-13T04:47:39.149Z,18.23
2022-11-13T04:50:26.682Z,17.30
2022-11-13T04:53:13.671Z,19.40
2022-11-13T04:56:02.160Z,17.80
2022-11-13T04:58:48.947Z,16.80
2022-11-13T05:01:36.549Z,19.03
2022-11-13T05:04:24.188Z,20.17
2022-11-13T05:07:10.994Z,20.40
2022-11-13T05:09:57.776Z,20.43
2022-11-13T05:12:46.808Z,22.70
2022-11-13T05:15:33.536Z,23.70
2022-11-13T05:18:21.211Z,18.97
2022-11-13T05:21:09.923Z,17.77
2022-11-13T05:23:57.603Z,17.77
2022-11-13T05:26:44.612Z,18.67
2022-11-13T05:29:32.983Z,20.77
2022-11-13T05:32:19.763Z,21.23
2022-11-13T05:35:07.116Z,17.00
2022-11-13T05:37:54.300Z,17.50
2022-11-13T05:40:41.296Z,18.10
2022-11-13T05:43:28.286Z,19.20
2022-11-13T05:46:18.802Z,17.27
2022-11-13T05:49:05.836Z,16.00
2022-11-13T05:51:55.017Z,18.13
2022-11-13T05:54:41.943Z,17.67
2022-11-13T05:57:29.106Z,18.40
2022-11-13T06:00:17.390Z,16.47
2022-11-13T06:03:05.760Z,18.23
2022-11-13T06:05:52.649Z,16.57
2022-11-13T06:08:40.257Z,17.13
2022-11-13T06:11:28.836Z,18.57
2022-11-13T06:14:15.963Z,16.70
2022-11-13T06:17:02.716Z,16.63
2022-11-13T06:19:50.977Z,16.60
2022-11-13T06:22:37.641Z,16.73
2022-11-13T06:25:24.705Z,16.40
2022-11-13T06:28:11.930Z,16.63
2022-11-13T06:31:04.919Z,16.00
2022-11-13T06:33:52.176Z,19.87
2022-11-13T06:36:40.375Z,23.67
2022-11-13T06:39:27.320Z,15.10
2022-11-13T06:42:14.182Z,15.23
2022-11-13T06:45:01.099Z,15.17
2022-11-13T06:47:48.049Z,14.37
2022-11-13T06:50:35.069Z,14.43
2022-11-13T06:53:23.319Z,13.67
2022-11-13T06:56:11.561Z,14.07
2022-11-13T06:58:58.587Z,13.00
2022-11-13T07:01:45.820Z,16.73
2022-11-13T07:04:32.683Z,13.77
2022-11-13T07:07:19.692Z,12.80
2022-11-13T07:10:09.266Z,12.70
2022-11-13T07:12:59.436Z,13.47
2022-11-13T07:15:46.123Z,13.70
2022-11-13T07:18:33.725Z,14.43
2022-11-13T07:21:21.654Z,12.27
2022-11-13T07:24:11.547Z,12.27
2022-11-13T07:27:03.555Z,12.80
2022-11-13T07:29:50.239Z,11.17
2022-11-13T07:32:37.596Z,13.40
2022-11-13T07:35:24.492Z,12.53
2022-11-13T07:38:11.314Z,12.30
2022-11-13T07:40:59.765Z,12.17
2022-11-13T07:43:47.981Z,12.30
2022-11-13T07:46:35.007Z,11.97
2022-11-13T07:49:21.827Z,11.37
2022-11-13T07:52:09.296Z,11.07
2022-11-13T07:54:56.303Z,12.00
2022-11-13T07:57:43.429Z,12.03
2022-11-13T08:00:34.214Z,12.40
2022-11-13T08:03:20.918Z,11.97
2022-11-13T08:06:09.570Z,11.03
2022-11-13T08:08:56.639Z,10.90
2022-11-13T08:11:43.593Z,10.30
2022-11-13T08:14:30.544Z,10.70
2022-11-13T08:17:18.994Z,9.73
2022-11-13T08:20:11.526Z,10.13
2022-11-13T08:23:00.273Z,10.50
2022-11-13T08:25:47.168Z,10.33
2022-11-13T08:28:34.383Z,10.03
2022-11-13T08:31:21.351Z,10.27
2022-11-13T08:34:09.804Z,9.17
2022-11-13T08:36:56.487Z,9.03
2022-11-13T08:39:43.369Z,9.00
2022-11-13T08:42:30.408Z,9.53
2022-11-13T08:45:17.452Z,8.67
2022-11-13T08:48:05.698Z,8.90
2022-11-13T08:50:54.693Z,8.03
2022-11-13T08:53:41.325Z,8.27
2022-11-13T08:56:28.659Z,8.07
2022-11-13T08:59:15.952Z,7.67
2022-11-13T09:02:02.844Z,7.60
2022-11-13T09:04:49.823Z,7.73
2022-11-13T09:07:38.171Z,8.00
2022-11-13T09:10:25.572Z,8.60
2022-11-13T09:13:12.903Z,8.80
2022-11-13T09:16:00.518Z,8.97
2022-11-13T09:18:50.418Z,8.67
2022-11-13T09:21:37.277Z,8.60
2022-11-13T09:24:25.655Z,8.60
2022-11-13T09:27:13.686Z,8.10
2022-11-13T09:30:00.702Z,7.80
2022-11-13T09:32:47.741Z,7.97
2022-11-13T09:35:37.474Z,8.80
2022-11-13T09:38:24.912Z,9.23
2022-11-13T09:41:16.635Z,8.53
2022-11-13T09:44:07.163Z,9.03
2022-11-13T09:46:59.111Z,9.10
2022-11-13T09:49:48.257Z,9.67
2022-11-13T09:52:38.081Z,8.60
2022-11-13T09:55:30.020Z,8.27
2022-11-13T09:58:25.418Z,8.20
2022-11-13T10:01:18.721Z,7.63
2022-11-13T10:04:14.298Z,7.93
2022-11-13T10:07:20.081Z,7.63
2022-11-13T10:10:33.179Z,7.63
2022-11-13T10:13:25.062Z,8.50
2022-11-13T10:16:19.090Z,8.07
2022-11-13T10:19:11.753Z,7.60
2022-11-13T10:22:31.118Z,7.50
2022-11-13T10:25:17.075Z,7.77
2022-11-13T10:28:35.397Z,7.50
2022-11-13T10:31:21.772Z,8.00
2022-11-13T10:34:08.583Z,7.13
2022-11-13T10:37:25.455Z,7.20
2022-11-13T10:40:12.683Z,7.47
2022-11-13T10:43:07.452Z,7.50
2022-11-13T10:45:58.623Z,8.27
2022-11-13T10:48:46.938Z,7.87
2022-11-13T10:51:35.956Z,7.67
2022-11-13T10:54:26.077Z,8.30
2022-11-13T10:57:33.229Z,7.70
2022-11-13T11:00:23.085Z,8.00
2022-11-13T11:03:10.053Z,7.83
2022-11-13T11:05:59.942Z,8.40
2022-11-13T11:08:47.076Z,8.20
2022-11-13T11:12:03.307Z,7.80
2022-11-13T11:15:07.455Z,7.40
2022-11-13T11:17:58.641Z,7.32
2022-11-13T11:20:49.845Z,7.82
2022-11-13T11:23:49.481Z,7.45
2022-11-13T11:26:42.145Z,7.50
2022-11-13T11:29:34.423Z,7.35
2022-11-13T11:32:28.475Z,7.50
2022-11-13T11:35:20.175Z,7.50
2022-11-13T11:38:12.710Z,7.22
2022-11-13T11:41:15.006Z,7.60
2022-11-13T11:44:14.954Z,7.65
2022-11-13T11:47:01.678Z,6.72
2022-11-13T11:49:48.861Z,6.65
2022-11-13T11:52:50.790Z,7.05
2022-11-13T11:55:54.312Z,6.78
2022-11-13T11:59:10.487Z,6.10
2022-11-13T12:02:21.797Z,5.95
2022-11-13T12:05:24.265Z,6.13
2022-11-13T12:08:21.749Z,5.38
2022-11-13T12:11:15.614Z,5.97
2022-11-13T12:14:16.319Z,5.15
2022-11-13T12:17:17.545Z,4.38
2022-11-13T12:20:16.196Z,3.97
2022-11-13T12:23:16.112Z,3.78
2022-11-13T12:26:08.351Z,3.25
2022-11-13T12:29:03.992Z,3.90
2022-11-13T12:32:01.860Z,4.10
2022-11-13T12:34:52.787Z,4.20
2022-11-13T12:37:48.541Z,3.85
2022-11-13T12:40:44.475Z,4.47
2022-11-13T12:43:49.168Z,4.32
2022-11-13T12:46:38.723Z,4.68
2022-11-13T12:49:33.194Z,4.38
2022-11-13T12:52:23.985Z,4.25
2022-11-13T12:55:27.633Z,4.40
2022-11-13T12:58:22.617Z,4.25
2022-11-13T13:01:18.632Z,4.70
2022-11-13T13:04:34.768Z,4.18
2022-11-13T13:07:36.956Z,4.22
2022-11-13T13:10:33.430Z,4.25
2022-11-13T13:13:29.251Z,4.40
2022-11-13T13:16:24.822Z,4.07
2022-11-13T13:19:26.843Z,4.20
2022-11-13T13:22:27.596Z,4.25
2022-11-13T13:25:27.181Z,4.30
2022-11-13T13:28:21.375Z,4.40
2022-11-13T13:31:20.408Z,3.90
2022-11-13T13:34:23.031Z,4.47
2022-11-13T13:37:22.868Z,4.15
2022-11-13T13:40:22.399Z,4.38
2022-11-13T13:43:29.212Z,4.20
2022-11-13T13:46:18.846Z,4.15
2022-11-13T13:49:10.436Z,4.68
2022-11-13T13:51:58.508Z,4.20
2022-11-13T13:54:47.159Z,4.47
2022-11-13T13:57:34.377Z,5.28
2022-11-13T14:00:22.315Z,4.35
2022-11-13T14:03:20.558Z,4.60
2022-11-13T14:06:18.229Z,4.40
2022-11-13T14:09:12.510Z,4.50
2022-11-13T14:12:08.025Z,4.07
2022-11-13T14:14:56.382Z,4.10
2022-11-13T14:17:44.619Z,3.90
2022-11-13T14:20:42.200Z,4.25
2022-11-13T14:23:32.055Z,4.20
2022-11-13T14:26:20.916Z,4.43
2022-11-13T14:29:37.448Z,4.30
2022-11-13T14:32:26.444Z,4.32
2022-11-13T14:35:21.022Z,4.30
2022-11-13T14:38:20.080Z,4.30
2022-11-13T14:41:07.988Z,4.53
2022-11-13T14:43:55.363Z,4.38
2022-11-13T14:46:45.404Z,4.40
2022-11-13T14:49:35.177Z,4.80
2022-11-13T14:52:24.430Z,4.82
2022-11-13T14:55:22.738Z,4.72
2022-11-13T14:58:13.926Z,4.80
2022-11-13T15:01:14.347Z,4.97
2022-11-13T15:04:03.359Z,4.60
2022-11-13T15:06:50.885Z,4.90
2022-11-13T15:09:37.438Z,4.60
2022-11-13T15:12:24.588Z,4.83
2022-11-13T15:15:15.899Z,4.97
2022-11-13T15:18:03.261Z,4.93
2022-11-13T15:20:51.906Z,4.80
2022-11-13T15:23:38.874Z,5.70
2022-11-13T15:26:25.929Z,5.80
2022-11-13T15:29:12.881Z,5.57
2022-11-13T15:32:00.283Z,5.20
2022-11-13T15:34:47.053Z,5.17
2022-11-13T15:37:35.380Z,5.67
2022-11-13T15:40:22.160Z,5.50
2022-11-13T15:43:16.189Z,5.30
2022-11-13T15:46:03.886Z,5.63
2022-11-13T15:48:51.232Z,5.77
2022-11-13T15:51:41.361Z,6.03
2022-11-13T15:54:34.811Z,6.07
2022-11-13T15:57:23.219Z,6.53
2022-11-13T16:00:15.868Z,6.30
2022-11-13T16:03:04.632Z,6.83
2022-11-13T16:05:51.788Z,6.87
2022-11-13T16:08:38.826Z,7.27
2022-11-13T16:11:27.660Z,7.33
2022-11-13T16:14:14.919Z,7.03
2022-11-13T16:17:01.799Z,7.77
2022-11-13T16:19:51.102Z,7.80
2022-11-13T16:22:37.706Z,7.67
2022-11-13T16:25:25.186Z,8.27
2022-11-13T16:28:17.704Z,7.90
2022-11-13T16:31:05.290Z,8.43
2022-11-13T16:33:52.335Z,8.17
2022-11-13T16:36:39.296Z,9.17
2022-11-13T16:39:26.028Z,9.70
2022-11-13T16:42:14.266Z,9.27
2022-11-13T16:45:02.586Z,9.90
2022-11-13T16:47:50.757Z,10.10
2022-11-13T16:50:39.647Z,10.40
2022-11-13T16:53:26.920Z,10.30
2022-11-13T16:56:16.105Z,10.47
2022-11-13T16:59:02.952Z,10.73
2022-11-13T17:01:55.235Z,11.03
2022-11-13T17:04:42.523Z,11.47
2022-11-13T17:07:30.164Z,11.27
2022-11-13T17:10:34.756Z,11.00
2022-11-13T17:13:21.439Z,11.47
2022-11-13T17:16:10.124Z,11.47
2022-11-13T17:18:59.029Z,12.00
2022-11-13T17:21:45.749Z,12.23
2022-11-13T17:24:32.853Z,12.60
2022-11-13T17:27:19.925Z,12.67
2022-11-13T17:30:08.181Z,13.03
2022-11-13T17:32:56.650Z,13.23
2022-11-13T17:35:46.379Z,12.73
2022-11-13T17:38:34.739Z,12.93
2022-11-13T17:41:22.288Z,13.03
2022-11-13T17:44:09.422Z,13.03
2022-11-13T17:47:00.271Z,12.63
2022-11-13T17:49:47.570Z,12.90
2022-11-13T17:52:36.142Z,14.00
2022-11-13T17:55:23.469Z,13.47
2022-11-13T17:58:10.118Z,14.83
2022-11-13T18:01:05.905Z,14.30
2022-11-13T18:03:56.129Z,14.57
2022-11-13T18:06:42.788Z,14.83
2022-11-13T18:09:31.618Z,15.43
2022-11-13T18:12:18.383Z,15.37
2022-11-13T18:15:05.793Z,15.80
2022-11-13T18:17:52.818Z,16.73
2022-11-13T18:20:42.236Z,16.57
2022-11-13T18:23:30.495Z,15.53
2022-11-13T18:26:20.593Z,17.27
2022-11-13T18:29:10.230Z,17.37
2022-11-13T18:31:56.893Z,17.00
2022-11-13T18:34:44.072Z,17.23
2022-11-13T18:37:31.335Z,17.00
2022-11-13T18:40:18.406Z,18.33
2022-11-13T18:43:07.341Z,17.97
2022-11-13T18:45:57.767Z,17.87
2022-11-13T18:48:45.814Z,18.20
2022-11-13T18:51:35.481Z,18.30
2022-11-13T18:54:29.052Z,18.40
2022-11-13T18:57:16.990Z,18.60
2022-11-13T19:00:05.988Z,18.87
2022-11-13T19:02:52.687Z,18.60
2022-11-13T19:05:46.939Z,19.77
2022-11-13T19:08:40.382Z,19.63
2022-11-13T19:11:29.195Z,20.00
2022-11-13T19:14:17.997Z,19.97
2022-11-13T19:17:06.067Z,20.10
2022-11-13T19:19:55.428Z,20.27
2022-11-13T19:22:42.405Z,25.37
2022-11-13T19:25:29.422Z,25.77
2022-11-13T19:28:16.366Z,26.27
2022-11-13T19:31:08.033Z,24.30
2022-11-13T19:33:59.937Z,22.50
2022-11-13T19:36:49.483Z,22.57
2022-11-13T19:39:36.687Z,23.70
2022-11-13T19:42:23.523Z,22.57
2022-11-13T19:45:11.140Z,22.60
2022-11-13T19:47:57.982Z,23.07
2022-11-13T19:50:47.386Z,23.27
2022-11-13T19:53:33.967Z,23.20
2022-11-13T19:56:22.394Z,25.90
2022-11-13T19:59:11.256Z,23.23
2022-11-13T20:01:58.203Z,23.77
2022-11-13T20:04:45.260Z,24.80
2022-11-13T20:07:37.327Z,26.10
2022-11-13T20:10:24.076Z,26.50
2022-11-13T20:13:11.386Z,25.43
2022-11-13T20:15:58.000Z,25.50
2022-11-13T20:18:45.585Z,25.53
2022-11-13T20:21:32.671Z,24.20
2022-11-13T20:24:20.804Z,24.47
2022-11-13T20:27:07.720Z,25.80
2022-11-13T20:29:54.830Z,24.93
2022-11-13T20:32:42.179Z,25.07
2022-11-13T20:35:28.804Z,25.50
2022-11-13T20:38:16.026Z,24.90
2022-11-13T20:41:06.759Z,25.10
2022-11-13T20:43:55.860Z,25.50
2022-11-13T20:46:43.203Z,27.17
2022-11-13T20:49:29.751Z,25.77
2022-11-13T20:52:16.739Z,25.60
2022-11-13T20:55:03.931Z,24.10
2022-11-13T20:57:52.238Z,26.13
2022-11-13T21:00:38.900Z,24.93
2022-11-13T21:03:25.767Z,25.73
2022-11-13T21:06:15.151Z,25.87
2022-11-13T21:09:03.538Z,27.53
2022-11-13T21:11:50.344Z,29.60
2022-11-13T21:14:38.705Z,30.57
2022-11-13T21:17:25.385Z,29.67
2022-11-13T21:20:13.098Z,29.30
2022-11-13T21:23:00.025Z,30.50
2022-11-13T21:25:47.597Z,28.30
2022-11-13T21:28:34.985Z,26.77
2022-11-13T21:31:23.277Z,27.00
2022-11-13T21:34:11.048Z,28.10
2022-11-13T21:36:58.009Z,28.07
2022-11-13T21:39:46.406Z,28.83
2022-11-13T21:42:33.894Z,27.37
2022-11-13T21:45:20.901Z,26.93
2022-11-13T21:48:09.033Z,26.53
2022-11-13T21:50:55.760Z,27.67
2022-11-13T21:53:43.448Z,27.40
2022-11-13T21:56:35.950Z,26.47
2022-11-13T21:59:23.117Z,27.10
2022-11-13T22:02:11.945Z,27.70
2022-11-13T22:05:00.187Z,26.77
2022-11-13T22:07:47.229Z,28.07
2022-11-13T22:10:34.094Z,28.27
2022-11-13T22:13:20.932Z,27.67
2022-11-13T22:16:09.560Z,26.57
2022-11-13T22:18:57.428Z,28.77
2022-11-13T22:21:46.842Z,27.17
2022-11-13T22:24:33.573Z,26.33
2022-11-13T22:27:20.534Z,27.10
2022-11-13T22:30:08.731Z,27.33
2022-11-13T22:32:55.360Z,28.70
2022-11-13T22:35:42.806Z,26.67
2022-11-13T22:38:32.059Z,27.47
2022-11-13T22:41:23.623Z,27.93
2022-11-13T22:44:14.340Z,27.50
2022-11-13T22:47:01.015Z,27.63
2022-11-13T22:49:47.964Z,27.73
2022-11-13T22:52:34.920Z,26.53
2022-11-13T22:55:23.244Z,27.63
2022-11-13T22:58:09.840Z,27.57
2022-11-13T23:00:56.829Z,26.77
2022-11-13T23:03:46.464Z,26.03
2022-11-13T23:06:34.741Z,25.27
2022-11-13T23:09:22.364Z,26.90
2022-11-13T23:12:10.512Z,26.07
2022-11-13T23:14:57.455Z,25.87
2022-11-13T23:17:46.108Z,26.43
2022-11-13T23:20:32.787Z,26.70
2022-11-13T23:23:19.900Z,27.10
2022-11-13T23:26:08.812Z,27.33
2022-11-13T23:28:58.054Z,26.30
2022-11-13T23:31:44.754Z,27.17
2022-11-13T23:34:58.002Z,25.67
2022-11-13T23:37:39.083Z,26.20
2022-11-13T23:40:26.221Z,26.23
2022-11-13T23:43:13.388Z,24.67
2022-11-13T23:46:02.105Z,25.40
2022-11-13T23:48:49.469Z,25.93
2022-11-13T23:51:36.181Z,27.00
2022-11-13T23:54:23.218Z,25.30
2022-11-13T23:57:10.311Z,25.47
2022-11-13T23:59:57.262Z,25.33
